sensor_id;sensor_type;location;lat;lon;timestamp;pressure;altitude;pressure_sealevel;temperature;humidity
61109;BME280;46995;55.740;37.402;2023-01-27T00:00:18;99780.66;;;-1.74;77.29
61109;BME280;46995;55.740;37.402;2023-01-27T00:02:45;99785.06;;;-1.78;77.12
61109;BME280;46995;55.740;37.402;2023-01-27T00:05:13;99762.25;;;-1.93;77.31
61109;BME280;46995;55.740;37.402;2023-01-27T00:07:39;99788.56;;;-1.79;77.19
61109;BME280;46995;55.740;37.402;2023-01-27T00:10:12;99793.63;;;-1.76;77.33
61109;BME280;46995;55.740;37.402;2023-01-27T00:12:39;99795.06;;;-1.67;77.29
61109;BME280;46995;55.740;37.402;2023-01-27T00:15:24;99794.09;;;-1.63;76.92
61109;BME280;46995;55.740;37.402;2023-01-27T00:17:50;99775.63;;;-1.79;77.17
61109;BME280;46995;55.740;37.402;2023-01-27T00:20:16;99796.84;;;-1.67;77.53
61109;BME280;46995;55.740;37.402;2023-01-27T00:23:00;99788.41;;;-1.74;77.06
61109;BME280;46995;55.740;37.402;2023-01-27T00:25:45;99785.06;;;-1.78;77.71
61109;BME280;46995;55.740;37.402;2023-01-27T00:28:15;99768.81;;;-1.83;78.15
61109;BME280;46995;55.740;37.402;2023-01-27T00:30:51;99788.25;;;-1.69;78.16
61109;BME280;46995;55.740;37.402;2023-01-27T00:33:17;99769.63;;;-1.81;78.63
61109;BME280;46995;55.740;37.402;2023-01-27T00:36:04;99794.94;;;-1.62;78.40
61109;BME280;46995;55.740;37.402;2023-01-27T00:38:35;99777.06;;;-1.70;78.13
61109;BME280;46995;55.740;37.402;2023-01-27T00:41:07;99778.50;;;-1.61;78.51
61109;BME280;46995;55.740;37.402;2023-01-27T00:43:50;99772.41;;;-1.60;77.97
61109;BME280;46995;55.740;37.402;2023-01-27T00:46:17;99766.53;;;-1.65;77.50
61109;BME280;46995;55.740;37.402;2023-01-27T00:48:44;99781.88;;;-1.59;77.66
61109;BME280;46995;55.740;37.402;2023-01-27T00:51:10;99766.72;;;-1.70;78.01
61109;BME280;46995;55.740;37.402;2023-01-27T00:53:36;99773.31;;;-1.61;77.59
61109;BME280;46995;55.740;37.402;2023-01-27T00:56:02;99760.78;;;-1.74;77.86
61109;BME280;46995;55.740;37.402;2023-01-27T00:58:29;99779.31;;;-1.59;77.57
61109;BME280;46995;55.740;37.402;2023-01-27T01:01:00;99755.50;;;-1.71;77.79
61109;BME280;46995;55.740;37.402;2023-01-27T01:03:30;99753.59;;;-1.65;77.63
61109;BME280;46995;55.740;37.402;2023-01-27T01:05:58;99743.53;;;-1.73;77.55
61109;BME280;46995;55.740;37.402;2023-01-27T01:08:25;99742.66;;;-1.74;77.29
61109;BME280;46995;55.740;37.402;2023-01-27T01:10:52;99748.59;;;-1.70;77.63
61109;BME280;46995;55.740;37.402;2023-01-27T01:13:18;99763.97;;;-1.65;78.21
61109;BME280;46995;55.740;37.402;2023-01-27T01:15:46;99767.56;;;-1.69;78.60
61109;BME280;46995;55.740;37.402;2023-01-27T01:18:12;99768.63;;;-1.77;78.59
61109;BME280;46995;55.740;37.402;2023-01-27T01:20:42;99755.16;;;-1.86;78.56
61109;BME280;46995;55.740;37.402;2023-01-27T01:23:09;99766.91;;;-1.76;78.66
61109;BME280;46995;55.740;37.402;2023-01-27T01:25:35;99769.63;;;-1.81;78.22
61109;BME280;46995;55.740;37.402;2023-01-27T01:28:02;99768.06;;;-1.85;79.40
61109;BME280;46995;55.740;37.402;2023-01-27T01:30:29;99772.22;;;-1.81;78.83
61109;BME280;46995;55.740;37.402;2023-01-27T01:32:55;99765.53;;;-1.88;78.47
61109;BME280;46995;55.740;37.402;2023-01-27T01:35:22;99765.66;;;-1.91;79.44
61109;BME280;46995;55.740;37.402;2023-01-27T01:37:52;99755.66;;;-2.01;79.61
61109;BME280;46995;55.740;37.402;2023-01-27T01:40:19;99751.22;;;-1.98;79.34
61109;BME280;46995;55.740;37.402;2023-01-27T01:48:03;99739.47;;;-2.08;80.01
61109;BME280;46995;55.740;37.402;2023-01-27T01:50:32;99746.31;;;-2.07;80.06
61109;BME280;46995;55.740;37.402;2023-01-27T01:52:58;99751.28;;;-1.99;80.40
61109;BME280;46995;55.740;37.402;2023-01-27T01:55:27;99744.72;;;-2.09;80.28
61109;BME280;46995;55.740;37.402;2023-01-27T01:57:54;99736.28;;;-2.16;80.39
61109;BME280;46995;55.740;37.402;2023-01-27T02:00:20;99743.16;;;-2.15;79.13
61109;BME280;46995;55.740;37.402;2023-01-27T02:02:47;99756.78;;;-2.10;79.11
61109;BME280;46995;55.740;37.402;2023-01-27T02:05:45;99754.84;;;-2.03;78.95
61109;BME280;46995;55.740;37.402;2023-01-27T02:08:19;99742.22;;;-2.14;78.16
61109;BME280;46995;55.740;37.402;2023-01-27T02:10:45;99749.91;;;-2.11;78.23
61109;BME280;46995;55.740;37.402;2023-01-27T02:13:12;99732.81;;;-2.15;77.97
61109;BME280;46995;55.740;37.402;2023-01-27T02:15:38;99740.41;;;-2.10;77.85
61109;BME280;46995;55.740;37.402;2023-01-27T02:18:05;99752.31;;;-2.05;77.78
61109;BME280;46995;55.740;37.402;2023-01-27T02:20:39;99747.72;;;-1.97;78.02
61109;BME280;46995;55.740;37.402;2023-01-27T02:25:54;99741.13;;;-2.05;77.72
61109;BME280;46995;55.740;37.402;2023-01-27T02:28:21;99733.97;;;-1.99;77.17
61109;BME280;46995;55.740;37.402;2023-01-27T02:30:47;99733.25;;;-2.02;77.04
61109;BME280;46995;55.740;37.402;2023-01-27T02:33:14;99738.38;;;-2.01;76.82
61109;BME280;46995;55.740;37.402;2023-01-27T02:36:01;99738.59;;;-2.08;77.36
61109;BME280;46995;55.740;37.402;2023-01-27T02:38:33;99739.56;;;-2.11;77.15
61109;BME280;46995;55.740;37.402;2023-01-27T02:41:34;99730.25;;;-2.17;77.26
61109;BME280;46995;55.740;37.402;2023-01-27T02:44:02;99714.19;;;-2.26;77.76
61109;BME280;46995;55.740;37.402;2023-01-27T02:46:28;99731.09;;;-2.16;77.44
61109;BME280;46995;55.740;37.402;2023-01-27T02:48:55;99731.19;;;-2.19;77.81
61109;BME280;46995;55.740;37.402;2023-01-27T02:51:21;99728.72;;;-2.22;77.80
61109;BME280;46995;55.740;37.402;2023-01-27T02:53:47;99710.78;;;-2.28;77.82
61109;BME280;46995;55.740;37.402;2023-01-27T02:56:13;99705.63;;;-2.28;77.24
61109;BME280;46995;55.740;37.402;2023-01-27T02:58:40;99718.25;;;-2.19;77.36
61109;BME280;46995;55.740;37.402;2023-01-27T03:01:23;99724.94;;;-2.12;77.47
61109;BME280;46995;55.740;37.402;2023-01-27T03:03:50;99726.47;;;-2.06;76.93
61109;BME280;46995;55.740;37.402;2023-01-27T03:06:18;99723.25;;;-2.13;76.96
61109;BME280;46995;55.740;37.402;2023-01-27T03:08:44;99718.16;;;-2.16;77.42
61109;BME280;46995;55.740;37.402;2023-01-27T03:11:13;99718.16;;;-2.16;76.74
61109;BME280;46995;55.740;37.402;2023-01-27T03:13:39;99715.66;;;-2.19;77.50
61109;BME280;46995;55.740;37.402;2023-01-27T03:16:06;99708.81;;;-2.20;76.92
61109;BME280;46995;55.740;37.402;2023-01-27T03:18:52;99722.66;;;-2.21;76.95
61109;BME280;46995;55.740;37.402;2023-01-27T03:21:21;99734.59;;;-2.17;77.04
61109;BME280;46995;55.740;37.402;2023-01-27T03:23:48;99737.13;;;-2.16;77.24
61109;BME280;46995;55.740;37.402;2023-01-27T03:26:18;99719.34;;;-2.26;77.23
61109;BME280;46995;55.740;37.402;2023-01-27T03:28:48;99731.88;;;-2.14;77.13
61109;BME280;46995;55.740;37.402;2023-01-27T03:31:37;99715.59;;;-2.16;77.22
61109;BME280;46995;55.740;37.402;2023-01-27T03:34:03;99713.78;;;-2.14;76.66
61109;BME280;46995;55.740;37.402;2023-01-27T03:36:32;99733.97;;;-1.99;76.94
61109;BME280;46995;55.740;37.402;2023-01-27T03:39:17;99726.44;;;-2.05;76.52
61109;BME280;46995;55.740;37.402;2023-01-27T03:42:02;99727.22;;;-2.03;76.23
61109;BME280;46995;55.740;37.402;2023-01-27T03:44:47;99702.69;;;-2.18;76.31
61109;BME280;46995;55.740;37.402;2023-01-27T03:47:31;99727.53;;;-2.12;76.33
61109;BME280;46995;55.740;37.402;2023-01-27T03:49:57;99732.50;;;-2.06;76.30
61109;BME280;46995;55.740;37.402;2023-01-27T03:52:22;99742.84;;;-2.06;76.04
61109;BME280;46995;55.740;37.402;2023-01-27T03:54:48;99747.28;;;-2.09;76.04
61109;BME280;46995;55.740;37.402;2023-01-27T03:57:14;99720.06;;;-2.21;76.12
61109;BME280;46995;55.740;37.402;2023-01-27T03:59:40;99726.13;;;-2.22;75.81
61109;BME280;46995;55.740;37.402;2023-01-27T04:02:06;99748.38;;;-2.17;75.65
61109;BME280;46995;55.740;37.402;2023-01-27T04:04:50;99750.06;;;-2.16;75.75
61109;BME280;46995;55.740;37.402;2023-01-27T04:07:35;99726.00;;;-2.19;75.62
61109;BME280;46995;55.740;37.402;2023-01-27T04:10:05;99731.28;;;-2.22;75.77
61109;BME280;46995;55.740;37.402;2023-01-27T04:12:30;99752.47;;;-2.09;75.94
61109;BME280;46995;55.740;37.402;2023-01-27T04:14:56;99749.06;;;-2.11;75.95
61109;BME280;46995;55.740;37.402;2023-01-27T04:17:22;99749.91;;;-2.11;75.57
61109;BME280;46995;55.740;37.402;2023-01-27T04:19:48;99756.56;;;-2.04;76.06
61109;BME280;46995;55.740;37.402;2023-01-27T04:22:14;99758.13;;;-1.98;76.01
61109;BME280;46995;55.740;37.402;2023-01-27T04:24:41;99740.22;;;-2.04;76.00
61109;BME280;46995;55.740;37.402;2023-01-27T04:27:09;99756.34;;;-1.96;76.80
61109;BME280;46995;55.740;37.402;2023-01-27T04:29:39;99758.19;;;-2.00;76.17
61109;BME280;46995;55.740;37.402;2023-01-27T04:32:10;99759.22;;;-2.05;76.47
61109;BME280;46995;55.740;37.402;2023-01-27T04:34:37;99740.03;;;-2.26;76.89
61109;BME280;46995;55.740;37.402;2023-01-27T04:37:03;99746.00;;;-2.24;76.70
61109;BME280;46995;55.740;37.402;2023-01-27T04:39:30;99733.50;;;-2.38;76.84
61109;BME280;46995;55.740;37.402;2023-01-27T04:41:56;99735.06;;;-2.32;77.13
61109;BME280;46995;55.740;37.402;2023-01-27T04:44:23;99769.03;;;-2.15;76.82
61109;BME280;46995;55.740;37.402;2023-01-27T04:46:49;99766.50;;;-2.18;77.16
61109;BME280;46995;55.740;37.402;2023-01-27T04:49:15;99774.38;;;-2.21;76.72
61109;BME280;46995;55.740;37.402;2023-01-27T04:51:41;99744.66;;;-2.36;77.17
61109;BME280;46995;55.740;37.402;2023-01-27T04:54:08;99779.25;;;-2.12;76.93
61109;BME280;46995;55.740;37.402;2023-01-27T04:56:42;99769.75;;;-2.11;76.61
61109;BME280;46995;55.740;37.402;2023-01-27T04:59:19;99777.47;;;-2.10;76.63
61109;BME280;46995;55.740;37.402;2023-01-27T05:01:45;99764.78;;;-2.18;76.73
61109;BME280;46995;55.740;37.402;2023-01-27T05:04:11;99775.09;;;-2.16;77.33
61109;BME280;46995;55.740;37.402;2023-01-27T05:06:38;99775.97;;;-2.17;76.97
61109;BME280;46995;55.740;37.402;2023-01-27T05:09:03;99770.97;;;-2.23;77.14
61109;BME280;46995;55.740;37.402;2023-01-27T05:11:31;99757.44;;;-2.31;77.42
61109;BME280;46995;55.740;37.402;2023-01-27T05:13:56;99772.97;;;-2.31;77.67
61109;BME280;46995;55.740;37.402;2023-01-27T05:16:23;99779.72;;;-2.27;77.74
61109;BME280;46995;55.740;37.402;2023-01-27T05:18:51;99772.28;;;-2.38;77.77
61109;BME280;46995;55.740;37.402;2023-01-27T05:21:24;99797.88;;;-2.29;77.59
61109;BME280;46995;55.740;37.402;2023-01-27T05:23:52;99757.31;;;-2.56;78.51
61109;BME280;46995;55.740;37.402;2023-01-27T05:26:24;99791.31;;;-2.40;78.27
61109;BME280;46995;55.740;37.402;2023-01-27T05:28:51;99778.84;;;-2.56;78.38
61109;BME280;46995;55.740;37.402;2023-01-27T05:31:20;99797.34;;;-2.40;78.18
61109;BME280;46995;55.740;37.402;2023-01-27T05:33:48;99761.84;;;-2.63;78.40
61109;BME280;46995;55.740;37.402;2023-01-27T05:36:17;99800.88;;;-2.42;78.40
61109;BME280;46995;55.740;37.402;2023-01-27T05:38:44;99802.91;;;-2.53;78.46
61109;BME280;46995;55.740;37.402;2023-01-27T05:41:12;99811.56;;;-2.54;79.30
61109;BME280;46995;55.740;37.402;2023-01-27T05:43:40;99796.38;;;-2.67;79.14
61109;BME280;46995;55.740;37.402;2023-01-27T05:46:09;99809.97;;;-2.59;79.21
61109;BME280;46995;55.740;37.402;2023-01-27T05:48:37;99798.19;;;-2.69;79.89
61109;BME280;46995;55.740;37.402;2023-01-27T05:51:04;99817.47;;;-2.51;79.79
61109;BME280;46995;55.740;37.402;2023-01-27T05:53:31;99816.47;;;-2.45;79.24
61109;BME280;46995;55.740;37.402;2023-01-27T05:55:57;99783.94;;;-2.52;79.18
61109;BME280;46995;55.740;37.402;2023-01-27T05:58:23;99794.94;;;-2.46;79.76
61109;BME280;46995;55.740;37.402;2023-01-27T06:00:49;99785.63;;;-2.51;79.02
61109;BME280;46995;55.740;37.402;2023-01-27T06:03:15;99794.09;;;-2.46;79.17
61109;BME280;46995;55.740;37.402;2023-01-27T06:08:17;99808.47;;;-2.36;78.33
61109;BME280;46995;55.740;37.402;2023-01-27T06:10:43;99801.88;;;-2.46;78.46
61109;BME280;46995;55.740;37.402;2023-01-27T06:13:09;99808.81;;;-2.48;78.87
61109;BME280;46995;55.740;37.402;2023-01-27T06:15:34;99809.56;;;-2.45;79.13
61109;BME280;46995;55.740;37.402;2023-01-27T06:18:00;99812.72;;;-2.35;78.31
61109;BME280;46995;55.740;37.402;2023-01-27T06:20:26;99815.22;;;-2.32;78.78
61109;BME280;46995;55.740;37.402;2023-01-27T06:22:52;99799.19;;;-2.43;78.47
61109;BME280;46995;55.740;37.402;2023-01-27T06:25:18;99788.72;;;-2.40;78.05
61109;BME280;46995;55.740;37.402;2023-01-27T06:27:45;99807.47;;;-2.32;78.06
61109;BME280;46995;55.740;37.402;2023-01-27T06:30:11;99803.75;;;-2.24;77.67
61109;BME280;46995;55.740;37.402;2023-01-27T06:32:37;99817.53;;;-2.23;77.54
61109;BME280;46995;55.740;37.402;2023-01-27T06:35:05;99825.16;;;-2.19;77.79
61109;BME280;46995;55.740;37.402;2023-01-27T06:37:31;99820.53;;;-2.09;77.44
61109;BME280;46995;55.740;37.402;2023-01-27T06:39:56;99820.53;;;-2.09;77.12
61109;BME280;46995;55.740;37.402;2023-01-27T06:42:22;99789.13;;;-2.25;76.64
61109;BME280;46995;55.740;37.402;2023-01-27T06:44:48;99802.00;;;-2.23;76.88
61109;BME280;46995;55.740;37.402;2023-01-27T06:47:13;99825.16;;;-2.19;77.13
61109;BME280;46995;55.740;37.402;2023-01-27T06:49:39;99817.63;;;-2.26;77.31
61109;BME280;46995;55.740;37.402;2023-01-27T06:52:06;99819.06;;;-2.16;77.58
61109;BME280;46995;55.740;37.402;2023-01-27T06:54:32;99824.91;;;-2.09;77.00
61109;BME280;46995;55.740;37.402;2023-01-27T06:56:57;99821.66;;;-2.16;77.17
61109;BME280;46995;55.740;37.402;2023-01-27T06:59:23;99824.13;;;-2.13;76.82
61109;BME280;46995;55.740;37.402;2023-01-27T07:01:49;99825.81;;;-2.12;76.58
61109;BME280;46995;55.740;37.402;2023-01-27T07:04:15;99821.41;;;-2.08;76.68
61109;BME280;46995;55.740;37.402;2023-01-27T07:06:40;99827.25;;;-2.02;76.80
61109;BME280;46995;55.740;37.402;2023-01-27T07:09:06;99807.69;;;-2.10;75.98
61109;BME280;46995;55.740;37.402;2023-01-27T07:11:32;99807.91;;;-2.18;76.51
61109;BME280;46995;55.740;37.402;2023-01-27T07:13:59;99836.16;;;-2.12;76.61
61109;BME280;46995;55.740;37.402;2023-01-27T07:16:25;99830.97;;;-2.10;76.87
61109;BME280;46995;55.740;37.402;2023-01-27T07:18:52;99821.50;;;-2.11;76.04
61109;BME280;46995;55.740;37.402;2023-01-27T07:21:18;99824.06;;;-2.10;76.49
61109;BME280;46995;55.740;37.402;2023-01-27T07:23:44;99835.72;;;-1.97;76.46
61109;BME280;46995;55.740;37.402;2023-01-27T07:26:09;99823.59;;;-1.95;76.26
61109;BME280;46995;55.740;37.402;2023-01-27T07:28:35;99810.66;;;-1.95;75.13
61109;BME280;46995;55.740;37.402;2023-01-27T07:31:01;99843.03;;;-1.83;75.33
61109;BME280;46995;55.740;37.402;2023-01-27T07:33:27;99842.16;;;-1.82;75.51
61109;BME280;46995;55.740;37.402;2023-01-27T07:35:53;99844.50;;;-1.75;75.50
61109;BME280;46995;55.740;37.402;2023-01-27T07:38:20;99834.31;;;-1.79;75.20
61109;BME280;46995;55.740;37.402;2023-01-27T07:40:46;99829.75;;;-1.73;74.65
61109;BME280;46995;55.740;37.402;2023-01-27T07:43:11;99839.00;;;-1.64;74.93
61109;BME280;46995;55.740;37.402;2023-01-27T07:45:39;99844.53;;;-1.48;74.94
61109;BME280;46995;55.740;37.402;2023-01-27T07:48:06;99844.63;;;-1.51;74.09
61109;BME280;46995;55.740;37.402;2023-01-27T07:50:33;99838.03;;;-1.61;74.31
61109;BME280;46995;55.740;37.402;2023-01-27T07:53:00;99841.56;;;-1.62;74.29
61109;BME280;46995;55.740;37.402;2023-01-27T07:55:26;99852.34;;;-1.50;74.41
61109;BME280;46995;55.740;37.402;2023-01-27T07:57:52;99854.97;;;-1.51;74.08
61109;BME280;46995;55.740;37.402;2023-01-27T08:00:19;99848.00;;;-1.49;74.12
61109;BME280;46995;55.740;37.402;2023-01-27T08:02:52;99860.66;;;-1.40;74.31
61109;BME280;46995;55.740;37.402;2023-01-27T08:05:19;99855.09;;;-1.54;73.89
61109;BME280;46995;55.740;37.402;2023-01-27T08:07:45;99864.41;;;-1.49;73.79
61109;BME280;46995;55.740;37.402;2023-01-27T08:10:11;99853.31;;;-1.52;73.80
61109;BME280;46995;55.740;37.402;2023-01-27T08:12:38;99860.78;;;-1.43;73.27
61109;BME280;46995;55.740;37.402;2023-01-27T08:15:05;99873.19;;;-1.53;73.70
61109;BME280;46995;55.740;37.402;2023-01-27T08:17:31;99863.66;;;-1.52;74.27
61109;BME280;46995;55.740;37.402;2023-01-27T08:19:57;99845.06;;;-1.65;74.14
61109;BME280;46995;55.740;37.402;2023-01-27T08:22:23;99848.34;;;-1.60;74.05
61109;BME280;46995;55.740;37.402;2023-01-27T08:24:48;99853.31;;;-1.52;74.10
61109;BME280;46995;55.740;37.402;2023-01-27T08:27:15;99867.50;;;-1.38;74.04
61109;BME280;46995;55.740;37.402;2023-01-27T08:29:41;99848.53;;;-1.38;73.71
61109;BME280;46995;55.740;37.402;2023-01-27T08:32:07;99847.31;;;-1.28;73.49
61109;BME280;46995;55.740;37.402;2023-01-27T08:34:33;99866.66;;;-1.12;73.27
61109;BME280;46995;55.740;37.402;2023-01-27T08:36:59;99868.34;;;-1.11;73.04
61109;BME280;46995;55.740;37.402;2023-01-27T08:39:28;99864.81;;;-1.10;72.95
61109;BME280;46995;55.740;37.402;2023-01-27T08:41:54;99864.13;;;-1.15;73.15
61109;BME280;46995;55.740;37.402;2023-01-27T08:44:23;99860.84;;;-1.20;72.90
61109;BME280;46995;55.740;37.402;2023-01-27T08:46:49;99844.63;;;-1.25;73.46
61109;BME280;46995;55.740;37.402;2023-01-27T08:49:15;99843.72;;;-1.24;73.03
61109;BME280;46995;55.740;37.402;2023-01-27T08:51:41;99862.25;;;-1.10;73.14
61109;BME280;46995;55.740;37.402;2023-01-27T08:54:08;99856.06;;;-1.06;72.97
61109;BME280;46995;55.740;37.402;2023-01-27T08:56:34;99843.31;;;-1.12;73.07
61109;BME280;46995;55.740;37.402;2023-01-27T08:58:59;99843.31;;;-1.12;72.85
61109;BME280;46995;55.740;37.402;2023-01-27T09:01:26;99856.16;;;-1.09;72.97
61109;BME280;46995;55.740;37.402;2023-01-27T09:03:51;99874.75;;;-0.96;72.63
61109;BME280;46995;55.740;37.402;2023-01-27T09:06:18;99866.00;;;-0.94;72.57
61109;BME280;46995;55.740;37.402;2023-01-27T09:08:44;99870.22;;;-0.90;72.48
61109;BME280;46995;55.740;37.402;2023-01-27T09:11:30;99863.16;;;-0.86;72.29
61109;BME280;46995;55.740;37.402;2023-01-27T09:13:56;99869.19;;;-0.86;72.58
61109;BME280;46995;55.740;37.402;2023-01-27T09:16:21;99859.84;;;-0.90;72.17
61109;BME280;46995;55.740;37.402;2023-01-27T09:18:47;99872.56;;;-0.83;72.33
61109;BME280;46995;55.740;37.402;2023-01-27T09:21:13;99850.25;;;-0.88;72.42
61109;BME280;46995;55.740;37.402;2023-01-27T09:23:38;99863.22;;;-0.88;72.40
61109;BME280;46995;55.740;37.402;2023-01-27T09:26:04;99870.81;;;-0.83;72.29
61109;BME280;46995;55.740;37.402;2023-01-27T09:28:30;99859.78;;;-0.88;72.42
61109;BME280;46995;55.740;37.402;2023-01-27T09:30:57;99859.72;;;-0.87;72.02
61109;BME280;46995;55.740;37.402;2023-01-27T09:33:23;99863.13;;;-0.84;72.51
61109;BME280;46995;55.740;37.402;2023-01-27T09:35:56;99863.22;;;-0.88;71.98
61109;BME280;46995;55.740;37.402;2023-01-27T09:38:25;99863.28;;;-0.89;72.08
61109;BME280;46995;55.740;37.402;2023-01-27T09:43:42;99874.22;;;-0.81;72.40
61109;BME280;46995;55.740;37.402;2023-01-27T09:52:08;99873.44;;;-0.58;72.02
61109;BME280;46995;55.740;37.402;2023-01-27T09:54:47;99852.72;;;-0.60;71.43
61109;BME280;46995;55.740;37.402;2023-01-27T09:57:19;99870.59;;;-0.52;71.56
61109;BME280;46995;55.740;37.402;2023-01-27T10:27:16;99848.56;;;-0.89;72.42
61109;BME280;46995;55.740;37.402;2023-01-27T10:29:57;99838.47;;;-0.96;72.96
61109;BME280;46995;55.740;37.402;2023-01-27T10:32:45;99864.66;;;-0.79;72.95
61109;BME280;46995;55.740;37.402;2023-01-27T10:35:19;99874.66;;;-0.68;72.72
61109;BME280;46995;55.740;37.402;2023-01-27T10:40:38;99845.44;;;-0.73;72.70
61109;BME280;46995;55.740;37.402;2023-01-27T10:46:14;99870.59;;;-0.52;72.71
61109;BME280;46995;55.740;37.402;2023-01-27T10:48:47;99861.53;;;-0.64;72.25
61109;BME280;46995;55.740;37.402;2023-01-27T10:51:25;99843.06;;;-0.79;72.78
61109;BME280;46995;55.740;37.402;2023-01-27T10:54:12;99857.28;;;-0.66;72.32
61109;BME280;46995;55.740;37.402;2023-01-27T10:56:52;99879.31;;;-0.53;72.41
61109;BME280;46995;55.740;37.402;2023-01-27T11:02:36;99868.03;;;-0.77;73.38
61109;BME280;46995;55.740;37.402;2023-01-27T11:05:15;99871.06;;;-0.64;72.77
61109;BME280;46995;55.740;37.402;2023-01-27T11:07:56;99856.94;;;-0.57;72.41
61109;BME280;46995;55.740;37.402;2023-01-27T11:10:34;99884.50;;;-0.53;72.88
61109;BME280;46995;55.740;37.402;2023-01-27T11:13:03;99874.22;;;-0.56;72.75
61109;BME280;46995;55.740;37.402;2023-01-27T11:15:33;99854.81;;;-0.69;72.52
61109;BME280;46995;55.740;37.402;2023-01-27T11:18:03;99879.56;;;-0.61;72.56
61109;BME280;46995;55.740;37.402;2023-01-27T11:20:33;99878.34;;;-0.75;73.27
61109;BME280;46995;55.740;37.402;2023-01-27T11:37:38;99878.63;;;-0.58;73.57
61109;BME280;46995;55.740;37.402;2023-01-27T11:40:17;99871.81;;;-0.62;73.74
61109;BME280;46995;55.740;37.402;2023-01-27T11:42:44;99874.41;;;-0.62;73.78
61109;BME280;46995;55.740;37.402;2023-01-27T11:45:19;99881.13;;;-0.57;73.70
61109;BME280;46995;55.740;37.402;2023-01-27T11:47:51;99870.94;;;-0.61;73.89
61109;BME280;46995;55.740;37.402;2023-01-27T11:50:19;99880.84;;;-0.48;73.04
61109;BME280;46995;55.740;37.402;2023-01-27T11:52:53;99883.72;;;-0.57;73.36
61109;BME280;46995;55.740;37.402;2023-01-27T11:55:26;99884.78;;;-0.62;73.57
61109;BME280;46995;55.740;37.402;2023-01-27T11:58:25;99880.47;;;-0.62;73.76
61109;BME280;46995;55.740;37.402;2023-01-27T12:01:00;99875.25;;;-0.62;73.62
61109;BME280;46995;55.740;37.402;2023-01-27T12:07:01;99875.75;;;-0.51;73.18
61109;BME280;46995;55.740;37.402;2023-01-27T12:09:34;99895.22;;;-0.39;72.86
61109;BME280;46995;55.740;37.402;2023-01-27T12:14:48;99878.72;;;-0.61;73.22
61109;BME280;46995;55.740;37.402;2023-01-27T12:19:51;99870.56;;;-0.75;73.75
61109;BME280;46995;55.740;37.402;2023-01-27T12:22:37;99899.25;;;-0.55;73.63
61109;BME280;46995;55.740;37.402;2023-01-27T12:25:14;99898.31;;;-0.53;74.23
61109;BME280;46995;55.740;37.402;2023-01-27T12:27:47;99888.81;;;-0.54;73.70
61109;BME280;46995;55.740;37.402;2023-01-27T12:30:25;99873.44;;;-0.58;73.44
61109;BME280;46995;55.740;37.402;2023-01-27T12:32:52;99892.84;;;-0.45;73.61
61109;BME280;46995;55.740;37.402;2023-01-27T12:35:34;99904.75;;;-0.39;73.32
61109;BME280;46995;55.740;37.402;2023-01-27T12:38:15;99908.31;;;-0.42;73.38
61109;BME280;46995;55.740;37.402;2023-01-27T12:40:45;99916.97;;;-0.43;73.30
61109;BME280;46995;55.740;37.402;2023-01-27T12:43:15;99883.91;;;-0.61;73.29
61109;BME280;46995;55.740;37.402;2023-01-27T12:45:42;99899.22;;;-0.54;73.51
61109;BME280;46995;55.740;37.402;2023-01-27T12:50:36;99922.00;;;-0.38;72.97
61109;BME280;46995;55.740;37.402;2023-01-27T12:53:10;99926.00;;;-0.53;73.71
61109;BME280;46995;55.740;37.402;2023-01-27T13:01:29;99929.56;;;-0.57;73.95
61109;BME280;46995;55.740;37.402;2023-01-27T13:04:16;99921.00;;;-0.59;73.79
61109;BME280;46995;55.740;37.402;2023-01-27T13:07:13;99916.75;;;-0.62;74.47
61109;BME280;46995;55.740;37.402;2023-01-27T13:10:00;99918.47;;;-0.61;74.07
61109;BME280;46995;55.740;37.402;2023-01-27T13:12:29;99917.59;;;-0.61;73.94
61109;BME280;46995;55.740;37.402;2023-01-27T13:15:18;99927.91;;;-0.58;74.05
61109;BME280;46995;55.740;37.402;2023-01-27T13:17:46;99915.06;;;-0.63;74.47
61109;BME280;46995;55.740;37.402;2023-01-27T13:23:00;99939.00;;;-0.55;74.10
61109;BME280;46995;55.740;37.402;2023-01-27T13:25:38;99935.72;;;-0.60;73.68
61109;BME280;46995;55.740;37.402;2023-01-27T13:28:12;99916.22;;;-0.71;74.21
61109;BME280;46995;55.740;37.402;2023-01-27T13:30:44;99943.31;;;-0.54;73.95
61109;BME280;46995;55.740;37.402;2023-01-27T13:33:44;99938.97;;;-0.53;73.84
61109;BME280;46995;55.740;37.402;2023-01-27T13:41:38;99936.13;;;-0.72;74.79
61109;BME280;46995;55.740;37.402;2023-01-27T13:44:34;99944.59;;;-0.67;74.63
61109;BME280;46995;55.740;37.402;2023-01-27T13:47:06;99939.56;;;-0.71;74.70
61109;BME280;46995;55.740;37.402;2023-01-27T13:49:41;99933.63;;;-0.73;74.59
61109;BME280;46995;55.740;37.402;2023-01-27T13:52:10;99931.16;;;-0.78;74.40
61109;BME280;46995;55.740;37.402;2023-01-27T13:54:36;99949.91;;;-0.70;74.75
61109;BME280;46995;55.740;37.402;2023-01-27T13:57:38;99943.06;;;-0.72;75.01
61109;BME280;46995;55.740;37.402;2023-01-27T14:00:43;99938.88;;;-0.76;74.98
61109;BME280;46995;55.740;37.402;2023-01-27T14:03:53;99951.69;;;-0.72;75.03
61109;BME280;46995;55.740;37.402;2023-01-27T14:06:27;99952.53;;;-0.71;75.09
61109;BME280;46995;55.740;37.402;2023-01-27T14:11:45;99953.38;;;-0.71;75.42
61109;BME280;46995;55.740;37.402;2023-01-27T14:25:14;99967.50;;;-0.79;75.29
61109;BME280;46995;55.740;37.402;2023-01-27T14:27:54;99939.78;;;-1.04;75.44
61109;BME280;46995;55.740;37.402;2023-01-27T14:30:40;99981.59;;;-0.88;75.94
61109;BME280;46995;55.740;37.402;2023-01-27T14:33:28;99980.75;;;-0.89;75.79
61109;BME280;46995;55.740;37.402;2023-01-27T14:42:11;99994.91;;;-0.99;76.38
61109;BME280;46995;55.740;37.402;2023-01-27T14:44:56;99993.13;;;-0.97;76.67
61109;BME280;46995;55.740;37.402;2023-01-27T14:47:41;99986.34;;;-1.01;76.46
61109;BME280;46995;55.740;37.402;2023-01-27T14:52:43;99997.16;;;-0.88;76.03
61109;BME280;46995;55.740;37.402;2023-01-27T14:57:54;99998.00;;;-0.88;76.38
61109;BME280;46995;55.740;37.402;2023-01-27T15:06:03;100004.84;;;-0.85;76.42
61109;BME280;46995;55.740;37.402;2023-01-27T15:08:56;99987.94;;;-0.97;76.87
61109;BME280;46995;55.740;37.402;2023-01-27T15:11:50;100003.00;;;-0.81;76.71
61109;BME280;46995;55.740;37.402;2023-01-27T15:22:41;100006.50;;;-0.82;76.65